Time;durP1;ratioP1;P1;durP2;ratioP2;P2;SDS_P1;SDS_P2;PMS_P1;PMS_P2;Temp;Humidity;BMP_temperature;BMP_pressure;BME280_temperature;BME280_humidity;BME280_pressure;Samples;Min_cycle;Max_cycle;Signal;HPM_P1;HPM_P2
2023/10/24 00:01:24;;;;;;;23.30;6.30;;;;;;;14.02;81.13;95039.16;5090814;28;20675;-70
2023/10/24 00:03:49;;;;;;;17.00;6.20;;;;;;;14.00;80.65;95036.75;5090546;28;20166;-70
2023/10/24 00:06:15;;;;;;;25.83;6.40;;;;;;;13.96;80.65;95036.38;5090484;28;20637;-70
2023/10/24 00:08:41;;;;;;;20.33;5.43;;;;;;;13.93;80.63;95038.66;5090639;28;20216;-70
2023/10/24 00:11:07;;;;;;;22.40;6.50;;;;;;;13.91;80.92;95030.97;5090411;28;20568;-70
2023/10/24 00:13:32;;;;;;;15.63;5.93;;;;;;;13.89;80.80;95034.88;5090244;28;20643;-70
2023/10/24 00:15:58;;;;;;;19.27;6.10;;;;;;;13.76;80.89;95009.41;5090240;28;20176;-70
2023/10/24 00:18:25;;;;;;;21.23;5.97;;;;;;;13.83;80.91;95030.50;5090415;28;20214;-70
2023/10/24 00:20:50;;;;;;;14.90;6.33;;;;;;;13.81;81.08;95032.56;5090171;28;20184;-70
2023/10/24 00:23:16;;;;;;;22.07;6.60;;;;;;;13.74;81.22;95022.06;5089907;28;20181;-71
2023/10/24 00:25:41;;;;;;;17.93;6.30;;;;;;;13.73;81.05;95028.41;5090639;28;20284;-70
2023/10/24 00:28:07;;;;;;;20.73;6.27;;;;;;;13.70;80.92;95025.38;5090097;28;20177;-70
2023/10/24 00:30:32;;;;;;;18.30;6.23;;;;;;;13.69;81.29;95029.06;5090161;28;20209;-70
2023/10/24 00:32:58;;;;;;;16.70;6.17;;;;;;;13.64;81.27;95029.75;5105269;28;20200;-71
2023/10/24 00:35:23;;;;;;;20.20;5.30;;;;;;;13.60;81.17;95032.03;5110404;28;20588;-70
2023/10/24 00:37:48;;;;;;;14.03;5.60;;;;;;;13.56;81.45;95024.78;5110282;28;20640;-70
2023/10/24 00:40:14;;;;;;;15.93;6.27;;;;;;;13.55;80.97;95029.25;5109177;28;20177;-69
2023/10/24 00:42:39;;;;;;;14.33;6.33;;;;;;;13.37;81.10;95000.22;5110196;28;20172;-69
2023/10/24 00:45:06;;;;;;;19.10;6.00;;;;;;;13.48;81.40;95030.38;5110338;28;20244;-69
2023/10/24 00:47:32;;;;;;;24.77;5.80;;;;;;;13.42;81.31;95031.25;5110223;28;20173;-69
2023/10/24 00:49:58;;;;;;;27.20;6.13;;;;;;;13.35;81.65;95033.19;5110087;28;20244;-70
2023/10/24 00:52:24;;;;;;;19.17;5.60;;;;;;;13.32;81.83;95026.50;5110084;28;20220;-70
2023/10/24 00:54:50;;;;;;;19.70;6.03;;;;;;;13.26;81.94;95029.22;5110068;28;20209;-69
2023/10/24 00:57:15;;;;;;;20.63;7.03;;;;;;;13.21;82.56;95032.56;5109666;28;20398;-69
2023/10/24 00:59:43;;;;;;;24.17;6.77;;;;;;;13.23;82.46;95025.22;5110025;28;20173;-69
2023/10/24 01:02:09;;;;;;;20.87;7.53;;;;;;;13.22;82.24;95028.88;5109947;28;20169;-69
2023/10/24 01:04:35;;;;;;;26.27;6.67;;;;;;;13.23;82.21;95027.88;5110094;28;20211;-69
2023/10/24 01:07:01;;;;;;;19.60;7.10;;;;;;;13.21;82.20;95021.97;5109750;28;20230;-69
2023/10/24 01:09:26;;;;;;;15.97;5.83;;;;;;;13.21;82.12;95027.28;5109106;28;20571;-69
2023/10/24 01:11:55;;;;;;;19.47;5.50;;;;;;;13.20;82.18;95023.81;5109741;28;20220;-70
2023/10/24 01:14:20;;;;;;;20.67;6.33;;;;;;;13.17;82.51;95026.91;5110090;28;20269;-70
2023/10/24 01:16:46;;;;;;;20.17;7.13;;;;;;;13.16;82.42;95030.56;5110021;28;20955;-70
2023/10/24 01:19:12;;;;;;;28.10;8.37;;;;;;;13.14;82.12;95027.34;5109889;28;20199;-70
2023/10/24 01:21:45;;;;;;;15.47;6.67;;;;;;;13.13;82.13;95025.75;5109899;28;20605;-70
2023/10/24 01:24:15;;;;;;;19.40;6.40;;;;;;;13.12;82.23;95021.44;5110165;28;20260;-70
2023/10/24 01:26:42;;;;;;;21.83;6.63;;;;;;;13.12;82.08;95026.75;5090519;28;20182;-70
2023/10/24 01:29:08;;;;;;;13.37;6.53;;;;;;;13.08;82.04;95028.19;5089393;28;20170;-70
2023/10/24 01:31:34;;;;;;;17.23;6.60;;;;;;;12.97;82.09;95009.66;5088013;28;20189;-70
2023/10/24 01:33:59;;;;;;;19.37;6.80;;;;;;;13.00;82.33;95020.56;5090865;28;20185;-70
2023/10/24 01:36:25;;;;;;;16.63;6.13;;;;;;;12.96;82.35;95011.47;5093594;28;20569;-70
2023/10/24 01:38:50;;;;;;;19.20;6.80;;;;;;;12.88;82.61;95005.69;5093732;28;20223;-70
2023/10/24 01:41:16;;;;;;;19.47;6.90;;;;;;;12.87;82.94;95018.09;5093519;28;20178;-69
2023/10/24 01:43:41;;;;;;;17.87;5.60;;;;;;;12.86;83.13;95021.75;5093513;28;20177;-69
2023/10/24 01:46:07;;;;;;;11.97;5.20;;;;;;;12.82;82.92;95010.00;5093134;28;20238;-70
2023/10/24 01:48:32;;;;;;;20.83;6.60;;;;;;;12.80;83.29;95015.50;5093137;28;20185;-69
2023/10/24 01:50:57;;;;;;;18.83;5.93;;;;;;;12.80;83.41;95020.78;5093277;28;20252;-70
2023/10/24 01:53:23;;;;;;;15.00;6.57;;;;;;;12.81;83.27;95009.19;5091786;28;20288;-69
2023/10/24 01:55:49;;;;;;;15.67;5.93;;;;;;;12.77;82.52;95009.88;5093242;28;20173;-69
2023/10/24 01:58:14;;;;;;;13.97;6.20;;;;;;;12.62;83.08;94998.88;5093011;28;20180;-69
2023/10/24 02:00:39;;;;;;;21.73;7.30;;;;;;;12.66;83.69;95010.59;5092976;28;20173;-70
2023/10/24 02:03:05;;;;;;;20.73;8.07;;;;;;;12.66;83.58;95018.50;5093005;28;20174;-69
2023/10/24 02:05:30;;;;;;;27.83;11.80;;;;;;;12.64;83.92;95017.91;5092938;28;20186;-70
2023/10/24 02:07:56;;;;;;;33.03;12.00;;;;;;;12.61;83.82;95010.47;5092984;28;20178;-69
2023/10/24 02:10:21;;;;;;;26.23;8.90;;;;;;;12.56;83.79;95010.28;5092900;28;20629;-70
2023/10/24 02:12:47;;;;;;;21.10;9.43;;;;;;;12.54;83.83;95013.13;5095234;28;20262;-70
2023/10/24 02:15:13;;;;;;;21.00;8.80;;;;;;;12.55;84.09;95009.47;5112002;28;20211;-69
2023/10/24 02:17:41;;;;;;;22.47;10.13;;;;;;;12.54;84.15;95009.72;5091438;28;20174;-70
2023/10/24 02:20:10;;;;;;;26.83;8.63;;;;;;;12.55;83.78;95006.03;5092908;28;20557;-70
2023/10/24 02:22:35;;;;;;;21.13;8.87;;;;;;;12.50;83.93;95011.97;5092816;28;20177;-70
2023/10/24 02:25:01;;;;;;;21.63;8.77;;;;;;;12.51;83.77;95012.78;5091450;28;20187;-70
2023/10/24 02:27:27;;;;;;;21.07;8.13;;;;;;;12.51;83.88;95018.06;5092561;28;20181;-70
2023/10/24 02:29:53;;;;;;;19.40;8.17;;;;;;;12.36;83.91;95013.94;5098433;28;20180;-69
2023/10/24 02:32:19;;;;;;;17.37;8.23;;;;;;;12.42;84.28;95010.44;5112748;27;20625;-70
2023/10/24 02:34:49;;;;;;;14.57;5.97;;;;;;;12.29;84.31;94989.44;5112595;28;20537;-69
2023/10/24 02:37:15;;;;;;;24.70;6.67;;;;;;;12.37;84.20;95007.63;5112598;28;20172;-70
2023/10/24 02:39:41;;;;;;;15.20;7.57;;;;;;;12.32;84.50;95020.69;5112326;28;20551;-69
2023/10/24 02:42:07;;;;;;;18.00;7.53;;;;;;;12.31;84.51;95019.06;5112074;28;20173;-70
2023/10/24 02:44:32;;;;;;;20.40;6.63;;;;;;;12.32;84.36;95025.97;5112073;28;20169;-70
2023/10/24 02:46:57;;;;;;;21.40;7.20;;;;;;;12.21;84.40;95012.66;5096747;28;20610;-70
2023/10/24 02:49:23;;;;;;;16.67;7.07;;;;;;;12.28;84.44;95029.25;5092150;28;20220;-70
2023/10/24 02:51:48;;;;;;;17.93;7.13;;;;;;;12.14;84.41;95004.00;5091993;28;20204;-70
2023/10/24 02:54:14;;;;;;;16.80;7.00;;;;;;;12.29;84.33;95023.75;5092034;28;20177;-70
2023/10/24 02:56:39;;;;;;;29.13;9.83;;;;;;;12.30;84.21;95029.81;5091941;28;20170;-70
2023/10/24 02:59:05;;;;;;;23.77;7.00;;;;;;;12.19;84.07;95026.09;5106215;28;20176;-70
2023/10/24 03:01:31;;;;;;;24.90;7.90;;;;;;;12.25;84.35;95042.88;5094470;28;20177;-70
2023/10/24 03:03:56;;;;;;;22.20;8.07;;;;;;;12.25;84.35;95033.13;5091906;28;20223;-70
2023/10/24 03:06:21;;;;;;;21.53;7.63;;;;;;;12.19;84.36;95033.19;5091948;28;20180;-70
2023/10/24 03:08:48;;;;;;;25.00;7.50;;;;;;;12.23;84.08;95042.28;5091939;28;20250;-70
2023/10/24 03:11:21;;;;;;;16.03;6.33;;;;;;;12.20;84.10;95040.88;5090479;28;20221;-71
2023/10/24 03:13:46;;;;;;;26.07;7.60;;;;;;;12.16;84.02;95042.34;5091546;28;20201;-69
2023/10/24 03:16:12;;;;;;;22.60;9.37;;;;;;;12.13;84.51;95047.22;5091507;28;20560;-69
2023/10/24 03:18:37;;;;;;;24.03;13.17;;;;;;;12.01;84.64;95036.59;5091598;28;20203;-69
2023/10/24 03:21:05;;;;;;;31.20;12.70;;;;;;;11.97;85.16;95028.28;5090329;28;20185;-69
2023/10/24 03:23:30;;;;;;;33.17;13.97;;;;;;;12.09;85.03;95058.25;5091600;28;20546;-70
2023/10/24 03:25:56;;;;;;;27.37;13.43;;;;;;;12.09;84.98;95052.16;5091673;28;20196;-70
2023/10/24 03:28:21;;;;;;;32.83;14.27;;;;;;;11.94;85.13;95046.34;5091263;28;20169;-69
2023/10/24 03:30:48;;;;;;;29.60;15.60;;;;;;;11.90;85.23;95040.72;5091364;28;20265;-70
2023/10/24 03:33:14;;;;;;;32.00;12.50;;;;;;;11.95;85.23;95045.34;5091331;28;20237;-70
2023/10/24 03:35:39;;;;;;;32.20;12.60;;;;;;;12.07;84.97;95070.84;5091080;28;20628;-69
2023/10/24 03:38:05;;;;;;;18.37;8.50;;;;;;;12.06;84.89;95063.94;5100827;28;20683;-70
2023/10/24 03:40:30;;;;;;;18.97;8.73;;;;;;;12.03;84.94;95058.25;5111420;28;20173;-69
2023/10/24 03:42:55;;;;;;;20.43;10.67;;;;;;;11.98;85.05;95056.28;5101467;28;20178;-69
2023/10/24 03:45:21;;;;;;;20.73;10.40;;;;;;;12.01;84.87;95070.88;5090881;28;20201;-69
2023/10/24 03:47:48;;;;;;;22.17;9.77;;;;;;;12.02;85.18;95072.50;5090802;28;20625;-70
2023/10/24 03:50:15;;;;;;;26.53;8.13;;;;;;;11.90;85.14;95064.47;5091002;28;20660;-70
2023/10/24 03:52:40;;;;;;;26.67;9.10;;;;;;;11.93;85.53;95065.88;5090594;28;20193;-70
2023/10/24 03:55:06;;;;;;;24.60;9.03;;;;;;;11.92;85.54;95065.06;5090850;28;20257;-73
2023/10/24 03:57:31;;;;;;;22.33;9.07;;;;;;;11.93;85.55;95063.22;5089626;28;20601;-70
2023/10/24 03:59:57;;;;;;;20.03;9.30;;;;;;;11.92;85.62;95072.16;5090097;28;20178;-69
2023/10/24 04:02:22;;;;;;;20.60;8.57;;;;;;;11.89;85.83;95072.59;5088971;28;20254;-70
2023/10/24 04:04:48;;;;;;;25.70;8.17;;;;;;;11.66;85.93;95038.84;5090066;28;20174;-69
2023/10/24 04:07:13;;;;;;;28.60;9.97;;;;;;;11.80;85.89;95058.03;5090878;28;20914;-70
2023/10/24 04:09:39;;;;;;;19.77;9.67;;;;;;;11.86;85.98;95073.81;5089511;28;20607;-70
2023/10/24 04:12:05;;;;;;;17.93;8.50;;;;;;;11.68;85.88;95044.69;5088682;28;20222;-70
2023/10/24 04:14:30;;;;;;;26.33;9.10;;;;;;;11.86;86.00;95073.00;5090185;28;20608;-70
2023/10/24 04:16:56;;;;;;;19.37;7.90;;;;;;;11.84;86.01;95075.06;5090286;28;20174;-69
2023/10/24 04:19:22;;;;;;;27.67;8.83;;;;;;;11.82;86.17;95072.63;5090194;28;20347;-70
2023/10/24 04:21:47;;;;;;;22.63;9.20;;;;;;;11.80;85.97;95066.75;5090064;28;20219;-69
2023/10/24 04:24:13;;;;;;;23.67;8.83;;;;;;;11.77;86.09;95072.44;5089865;28;20193;-69
2023/10/24 04:26:38;;;;;;;16.80;9.57;;;;;;;11.77;86.32;95076.91;5090172;28;20249;-69
2023/10/24 04:29:03;;;;;;;21.60;10.60;;;;;;;11.64;86.42;95057.50;5088357;28;20203;-69
2023/10/24 04:31:29;;;;;;;21.37;9.30;;;;;;;11.75;86.14;95078.97;5089996;28;20206;-69
2023/10/24 04:33:54;;;;;;;22.80;9.27;;;;;;;11.71;85.97;95082.00;5109547;28;20264;-70
2023/10/24 04:36:20;;;;;;;33.33;10.33;;;;;;;11.68;86.12;95087.69;5110252;28;20173;-70
2023/10/24 04:38:45;;;;;;;38.63;15.73;;;;;;;11.68;86.35;95092.94;5098284;28;20173;-70
2023/10/24 04:41:10;;;;;;;41.63;19.43;;;;;;;11.71;86.33;95099.63;5106242;28;20186;-70
2023/10/24 04:43:36;;;;;;;47.33;20.63;;;;;;;11.69;86.25;95096.41;5110262;28;20640;-70
2023/10/24 04:46:02;;;;;;;47.87;21.63;;;;;;;11.72;86.32;95099.44;5103144;28;20347;-70
2023/10/24 04:48:28;;;;;;;56.38;25.13;;;;;;;11.75;86.21;95106.16;5089529;28;20415;-69
2023/10/24 04:50:53;;;;;;;56.33;28.67;;;;;;;11.67;86.17;95106.38;5089884;28;20239;-69
2023/10/24 04:53:19;;;;;;;70.97;30.30;;;;;;;11.65;86.56;95111.84;5089789;28;20235;-68
2023/10/24 04:55:44;;;;;;;50.30;27.80;;;;;;;11.67;86.73;95098.47;5089442;28;20169;-68
2023/10/24 04:58:10;;;;;;;79.33;29.20;;;;;;;11.72;86.55;95104.72;5089600;28;20193;-69
2023/10/24 05:00:36;;;;;;;48.33;24.80;;;;;;;11.66;85.94;95095.00;5089056;28;20166;-70
2023/10/24 05:03:02;;;;;;;52.47;24.37;;;;;;;11.71;86.50;95124.19;5089001;28;20199;-69
2023/10/24 05:05:27;;;;;;;52.67;23.43;;;;;;;11.75;86.93;95121.16;5089680;28;20558;-70
2023/10/24 05:07:53;;;;;;;56.70;22.77;;;;;;;11.82;86.74;95114.84;5089697;28;20181;-72
2023/10/24 05:10:20;;;;;;;48.40;18.67;;;;;;;11.84;86.61;95123.34;5089418;28;20173;-69
2023/10/24 05:12:45;;;;;;;47.00;17.23;;;;;;;11.81;86.80;95128.22;5089155;28;20332;-71
2023/10/24 05:15:10;;;;;;;39.60;17.37;;;;;;;11.90;87.11;95126.97;5089007;28;20204;-70
2023/10/24 05:17:36;;;;;;;42.13;19.10;;;;;;;11.95;87.27;95119.22;5089317;28;20215;-69
2023/10/24 05:20:03;;;;;;;49.03;18.73;;;;;;;12.07;85.95;95136.00;5089435;28;20231;-69
2023/10/24 05:22:29;;;;;;;40.33;17.43;;;;;;;12.20;85.46;95143.81;5089527;28;20963;-69
2023/10/24 05:24:54;;;;;;;34.67;13.90;;;;;;;12.26;85.25;95134.25;5089192;28;20724;-69
2023/10/24 05:27:20;;;;;;;40.20;16.23;;;;;;;12.39;85.30;95142.88;5089174;28;20256;-69
2023/10/24 05:29:45;;;;;;;42.67;13.77;;;;;;;12.51;84.74;95139.53;5089240;28;20242;-69
2023/10/24 05:32:11;;;;;;;36.57;12.97;;;;;;;12.56;84.36;95143.13;5089386;28;20196;-69
2023/10/24 05:34:36;;;;;;;28.33;14.33;;;;;;;12.69;84.24;95142.22;5089426;28;20597;-70
2023/10/24 05:37:01;;;;;;;33.70;14.20;;;;;;;12.83;83.50;95141.06;5089628;28;20165;-70
2023/10/24 05:39:28;;;;;;;36.73;12.70;;;;;;;12.94;82.96;95145.66;5089644;28;20252;-70
2023/10/24 05:41:54;;;;;;;41.97;12.23;;;;;;;13.10;82.54;95150.38;5089206;28;20621;-69
2023/10/24 05:44:19;;;;;;;37.93;13.77;;;;;;;13.20;82.56;95150.72;5089414;28;20180;-69
2023/10/24 05:46:45;;;;;;;28.50;9.93;;;;;;;13.29;82.16;95153.88;5089472;28;20178;-69
2023/10/24 05:49:10;;;;;;;36.17;11.57;;;;;;;13.29;82.25;95139.84;5089220;28;20205;-70
2023/10/24 05:51:36;;;;;;;33.60;11.00;;;;;;;13.49;82.36;95153.66;5088054;28;20619;-70
2023/10/24 05:54:01;;;;;;;30.73;11.07;;;;;;;13.59;81.34;95153.91;5088640;28;20685;-70
2023/10/24 05:56:27;;;;;;;30.43;9.40;;;;;;;13.71;81.34;95151.34;5090068;28;20174;-69
2023/10/24 05:58:52;;;;;;;27.27;9.10;;;;;;;13.86;81.00;95151.75;5089096;28;20216;-70
2023/10/24 06:01:18;;;;;;;28.80;9.30;;;;;;;13.97;80.69;95146.53;5088799;28;20648;-70
2023/10/24 06:03:44;;;;;;;38.33;10.20;;;;;;;14.13;80.41;95146.91;5088875;28;20182;-69
2023/10/24 06:06:10;;;;;;;37.33;9.10;;;;;;;14.30;79.80;95145.25;5094389;28;20169;-69
2023/10/24 06:08:35;;;;;;;41.53;10.07;;;;;;;14.47;79.42;95148.88;5089150;28;20166;-70
2023/10/24 06:11:03;;;;;;;38.20;10.30;;;;;;;14.58;79.21;95158.69;5089099;28;20177;-69
2023/10/24 06:13:29;;;;;;;23.00;7.73;;;;;;;14.76;78.84;95154.34;5088821;28;20222;-70
2023/10/24 06:15:55;;;;;;;22.23;7.50;;;;;;;15.03;77.94;95158.97;5087755;28;20566;-70
2023/10/24 06:18:21;;;;;;;24.47;6.50;;;;;;;15.31;76.25;95155.59;5089127;28;20581;-70
2023/10/24 06:20:47;;;;;;;27.57;8.43;;;;;;;15.48;76.00;95159.16;5091504;28;20177;-70
2023/10/24 06:23:13;;;;;;;18.67;6.88;;;;;;;15.70;75.60;95154.06;5098247;28;20173;-69
2023/10/24 06:25:39;;;;;;;20.83;6.57;;;;;;;16.12;73.65;95164.44;5092465;28;20252;-70
2023/10/24 06:28:05;;;;;;;23.67;8.32;;;;;;;16.78;71.34;95165.59;5092491;28;20303;-69
2023/10/24 06:30:31;;;;;;;22.98;6.80;;;;;;;17.67;68.91;95167.22;5092375;28;20170;-69
2023/10/24 06:32:57;;;;;;;20.30;6.18;;;;;;;18.37;65.71;95166.41;5092405;28;20182;-70
2023/10/24 06:35:22;;;;;;;27.38;7.53;;;;;;;19.00;63.18;95170.22;5092514;28;20166;-69
2023/10/24 06:37:48;;;;;;;21.67;7.03;;;;;;;19.43;61.91;95161.16;5092370;28;20178;-69
2023/10/24 06:40:13;;;;;;;21.20;7.32;;;;;;;20.22;60.60;95160.19;5092423;28;20174;-69
2023/10/24 06:42:39;;;;;;;30.48;7.28;;;;;;;21.40;57.99;95170.75;5092503;28;20593;-70
2023/10/24 06:45:08;;;;;;;28.90;6.95;;;;;;;22.55;54.37;95154.50;5112316;28;20173;-70
2023/10/24 06:47:33;;;;;;;24.52;6.97;;;;;;;23.61;51.32;95150.97;5112685;28;20183;-70
2023/10/24 06:49:59;;;;;;;17.40;7.40;;;;;;;24.35;49.26;95149.59;5112765;28;21564;-70
2023/10/24 06:52:24;;;;;;;19.60;8.70;;;;;;;25.07;47.81;95160.13;5110853;28;20607;-70
2023/10/24 06:54:50;;;;;;;24.73;8.18;;;;;;;25.59;46.01;95161.69;5110990;28;20177;-70
2023/10/24 06:57:18;;;;;;;24.95;7.93;;;;;;;26.08;44.91;95160.22;5091187;28;20174;-70
2023/10/24 06:59:43;;;;;;;23.08;6.72;;;;;;;26.43;44.05;95159.50;5091465;28;20965;-70
2023/10/24 07:02:08;;;;;;;27.52;8.88;;;;;;;26.60;43.46;95156.16;5091686;28;20178;-69
2023/10/24 07:04:34;;;;;;;29.40;8.15;;;;;;;27.19;42.26;95154.25;5091770;28;20663;-70
2023/10/24 07:06:59;;;;;;;26.15;7.63;;;;;;;27.89;40.79;95157.06;5091748;28;20176;-70
2023/10/24 07:09:25;;;;;;;26.23;8.40;;;;;;;28.17;39.87;95148.75;5091412;28;20675;-71
2023/10/24 07:11:50;;;;;;;20.25;8.40;;;;;;;28.54;39.67;95142.78;5091479;28;20692;-71
2023/10/24 07:14:16;;;;;;;20.75;6.78;;;;;;;28.76;38.17;95136.41;5091548;28;20177;-70
2023/10/24 07:16:41;;;;;;;23.80;7.97;;;;;;;28.52;38.93;95142.28;5091533;28;20174;-70
2023/10/24 07:19:07;;;;;;;26.88;8.52;;;;;;;28.38;39.11;95138.91;5091733;28;20173;-71
2023/10/24 07:21:32;;;;;;;21.13;7.70;;;;;;;28.06;39.51;95140.09;5111342;28;20168;-70
2023/10/24 07:23:58;;;;;;;24.60;7.85;;;;;;;27.50;40.24;95128.06;5111776;28;20182;-70
2023/10/24 07:26:24;;;;;;;33.90;7.57;;;;;;;26.80;41.84;95122.50;5094246;28;20177;-69
2023/10/24 07:28:49;;;;;;;25.88;7.30;;;;;;;26.24;42.54;95119.09;5093966;28;20941;-69
2023/10/24 07:31:15;;;;;;;27.73;7.60;;;;;;;26.00;43.59;95120.44;5091545;28;20177;-70
2023/10/24 07:33:41;;;;;;;20.40;7.90;;;;;;;25.53;43.98;95130.47;5091237;28;20197;-70
2023/10/24 07:36:08;;;;;;;25.92;8.55;;;;;;;25.21;45.33;95122.44;5091301;28;20610;-71
2023/10/24 07:38:33;;;;;;;21.88;7.57;;;;;;;24.19;46.67;95113.19;5091154;28;20663;-70
2023/10/24 07:40:59;;;;;;;28.80;7.97;;;;;;;23.45;48.47;95109.19;5090757;28;20170;-70
2023/10/24 07:43:25;;;;;;;22.15;8.25;;;;;;;23.08;49.28;95119.78;5090442;28;20166;-70
2023/10/24 07:45:51;;;;;;;23.85;8.93;;;;;;;23.04;50.21;95113.34;5090873;28;20178;-70
2023/10/24 07:48:17;;;;;;;21.63;7.85;;;;;;;23.07;50.58;95108.22;5091209;28;20652;-70
2023/10/24 07:50:49;;;;;;;23.98;8.13;;;;;;;22.46;51.33;95105.19;5097671;28;20226;-70
2023/10/24 07:53:14;;;;;;;19.65;8.13;;;;;;;22.27;52.14;95101.56;5110985;28;20193;-70
2023/10/24 07:55:40;;;;;;;22.50;8.07;;;;;;;22.30;53.03;95098.34;5111039;28;20196;-69
2023/10/24 07:58:06;;;;;;;30.77;8.23;;;;;;;22.38;52.61;95098.53;5099470;28;20188;-70
2023/10/24 08:00:34;;;;;;;25.85;8.25;;;;;;;22.45;51.83;95084.81;5092719;28;20193;-69
2023/10/24 08:02:59;;;;;;;35.55;8.43;;;;;;;22.74;51.69;95093.75;5090534;28;20177;-69
2023/10/24 08:05:25;;;;;;;31.35;9.32;;;;;;;22.87;50.96;95097.66;5088922;28;20170;-71
2023/10/24 08:07:50;;;;;;;21.25;7.97;;;;;;;22.97;50.98;95108.31;5090570;28;20204;-70
2023/10/24 08:10:16;;;;;;;17.23;7.90;;;;;;;23.10;51.11;95112.22;5089863;28;20166;-69
2023/10/24 08:12:42;;;;;;;17.52;7.50;;;;;;;23.08;49.40;95084.84;5089780;28;20693;-70
2023/10/24 08:15:08;;;;;;;22.55;7.47;;;;;;;23.21;49.19;95103.78;5089934;28;20565;-69
2023/10/24 08:17:33;;;;;;;21.98;7.97;;;;;;;23.17;49.47;95096.59;5090089;28;20264;-70
2023/10/24 08:19:58;;;;;;;17.83;7.43;;;;;;;23.19;49.44;95100.56;5089916;28;20545;-70
2023/10/24 08:22:24;;;;;;;21.27;8.15;;;;;;;23.22;49.16;95093.84;5090366;28;20170;-70
2023/10/24 08:24:49;;;;;;;30.80;8.13;;;;;;;22.97;49.46;95083.34;5090332;28;20176;-70
2023/10/24 08:27:15;;;;;;;26.50;11.05;;;;;;;22.90;50.17;95079.13;5090145;28;20256;-70
2023/10/24 08:29:40;;;;;;;32.78;11.70;;;;;;;22.72;49.65;95077.09;5089064;28;20174;-70
2023/10/24 08:32:07;;;;;;;22.50;8.07;;;;;;;22.37;50.38;95066.63;5090223;28;20223;-70
2023/10/24 08:34:36;;;;;;;34.10;7.57;;;;;;;22.17;50.95;95079.09;5089971;28;20177;-69
2023/10/24 08:37:02;;;;;;;32.92;12.40;;;;;;;21.99;51.93;95063.63;5090502;28;20238;-70
2023/10/24 08:39:28;;;;;;;27.70;7.60;;;;;;;22.12;52.06;95064.91;5089445;28;20621;-69
2023/10/24 08:41:57;;;;;;;27.50;9.82;;;;;;;22.30;51.58;95064.25;5089940;28;20182;-69
2023/10/24 08:44:24;;;;;;;23.92;7.90;;;;;;;22.50;50.74;95064.09;5089364;28;20181;-70
2023/10/24 08:46:50;;;;;;;21.88;6.97;;;;;;;22.41;50.93;95056.91;5088628;28;20231;-70
2023/10/24 08:49:17;;;;;;;25.17;7.38;;;;;;;22.48;50.20;95055.53;5088629;28;20222;-70
2023/10/24 08:51:44;;;;;;;21.33;6.97;;;;;;;22.71;49.78;95050.53;5088195;28;20176;-70
2023/10/24 08:54:09;;;;;;;17.23;7.05;;;;;;;22.49;49.96;95054.44;5088497;28;20582;-71
2023/10/24 08:56:37;;;;;;;20.95;7.78;;;;;;;22.38;50.12;95055.63;5088037;28;20203;-70
2023/10/24 08:59:04;;;;;;;17.50;7.20;;;;;;;22.24;50.36;95045.78;5087765;28;20172;-70
2023/10/24 09:01:31;;;;;;;16.33;7.15;;;;;;;22.17;51.13;95051.47;5088632;28;20182;-69
2023/10/24 09:03:57;;;;;;;32.33;7.68;;;;;;;22.13;50.70;95040.50;5088568;28;20180;-69
2023/10/24 09:06:24;;;;;;;21.08;7.97;;;;;;;22.18;50.64;95037.78;5089625;28;20161;-69
2023/10/24 09:08:49;;;;;;;27.92;8.82;;;;;;;22.25;50.92;95028.59;5089412;28;20262;-69
2023/10/24 09:11:15;;;;;;;34.20;8.55;;;;;;;22.16;50.66;95029.19;5089286;28;20243;-70
2023/10/24 09:13:41;;;;;;;22.58;7.45;;;;;;;22.10;50.63;95027.63;5089289;28;20197;-69
2023/10/24 09:16:09;;;;;;;23.05;8.15;;;;;;;22.02;50.81;95027.44;5089606;28;20180;-69
2023/10/24 09:18:40;;;;;;;18.23;7.75;;;;;;;21.88;51.19;95029.88;5090081;28;20202;-68
2023/10/24 09:21:09;;;;;;;24.00;7.45;;;;;;;21.91;51.43;95023.16;5090163;28;20351;-69
2023/10/24 09:23:36;;;;;;;23.52;7.20;;;;;;;21.81;51.63;95015.97;5089353;28;20250;-70
2023/10/24 09:26:06;;;;;;;22.10;8.38;;;;;;;21.93;51.65;95024.50;5089127;28;20174;-70
2023/10/24 09:28:33;;;;;;;22.42;8.02;;;;;;;22.06;51.16;95021.22;5089106;28;20173;-70
2023/10/24 09:31:03;;;;;;;24.63;7.50;;;;;;;22.21;50.55;95028.38;5089283;28;20181;-70
2023/10/24 09:33:29;;;;;;;24.98;7.22;;;;;;;22.19;51.68;95007.19;5089314;28;20600;-70
2023/10/24 09:35:56;;;;;;;25.17;7.40;;;;;;;22.35;50.71;95010.56;5089501;28;20170;-70
2023/10/24 09:38:24;;;;;;;21.05;7.57;;;;;;;22.43;50.16;95019.88;5089785;28;20972;-70
2023/10/24 09:40:51;;;;;;;29.25;8.00;;;;;;;22.44;50.71;95014.25;5089253;28;20162;-69
2023/10/24 09:43:22;;;;;;;26.13;8.48;;;;;;;22.37;51.57;95004.91;5089322;28;20252;-70
2023/10/24 09:45:51;;;;;;;24.13;9.35;;;;;;;22.46;50.68;95006.72;5089551;28;20176;-70
2023/10/24 09:48:17;;;;;;;26.33;6.88;;;;;;;22.57;50.68;95010.13;5089365;28;20174;-70
2023/10/24 09:50:43;;;;;;;21.98;6.85;;;;;;;22.58;50.25;94991.03;5089411;28;20176;-70
2023/10/24 09:53:11;;;;;;;22.38;7.38;;;;;;;22.73;50.19;95000.84;5088670;28;20209;-70
2023/10/24 09:55:48;;;;;;;16.83;6.32;;;;;;;22.71;50.12;95000.31;5091055;28;20212;-70
2023/10/24 09:58:16;;;;;;;20.75;6.97;;;;;;;22.82;49.58;94993.81;5091862;28;20247;-70
2023/10/24 10:00:43;;;;;;;24.02;6.75;;;;;;;22.85;49.16;94995.09;5091660;28;20517;-70
2023/10/24 10:03:09;;;;;;;24.85;7.93;;;;;;;22.77;49.49;94991.16;5091407;28;20170;-70
2023/10/24 10:05:37;;;;;;;22.98;7.65;;;;;;;22.67;49.77;94991.22;5091292;28;20177;-70
2023/10/24 10:08:06;;;;;;;22.08;7.63;;;;;;;22.60;50.06;94988.06;5091130;28;20204;-70
2023/10/24 10:10:34;;;;;;;20.17;6.65;;;;;;;22.54;50.01;94981.16;5091075;28;20192;-70
2023/10/24 10:13:03;;;;;;;20.95;6.45;;;;;;;22.38;50.69;94983.19;5091819;28;20256;-70
2023/10/24 10:15:42;;;;;;;17.02;5.97;;;;;;;22.32;51.04;94980.78;5090902;28;20179;-70
2023/10/24 10:18:35;;;;;;;24.85;6.75;;;;;;;22.24;51.02;94968.78;5091612;28;20648;-70
2023/10/24 10:21:12;;;;;;;22.98;5.95;;;;;;;22.11;51.19;94970.25;5091486;28;20162;-70
2023/10/24 10:24:08;;;;;;;15.75;5.32;;;;;;;22.10;51.35;94959.78;5091536;28;20189;-70
2023/10/24 10:26:46;;;;;;;18.70;5.22;;;;;;;22.12;51.21;94958.44;5091776;28;20169;-70
2023/10/24 10:29:22;;;;;;;16.73;5.07;;;;;;;22.17;51.67;94965.63;5091480;28;20170;-70
2023/10/24 10:32:12;;;;;;;23.13;5.82;;;;;;;22.22;51.15;94956.75;5091413;28;20559;-70
2023/10/24 10:34:37;;;;;;;19.35;5.65;;;;;;;22.19;51.53;94950.88;5091386;28;20220;-70
2023/10/24 10:37:03;;;;;;;21.95;6.97;;;;;;;22.14;51.47;94945.53;5090165;28;20636;-70
2023/10/24 10:39:29;;;;;;;21.65;5.55;;;;;;;22.18;51.22;94938.53;5091304;28;20189;-70
2023/10/24 10:41:55;;;;;;;28.83;6.15;;;;;;;22.12;51.58;94933.50;5091317;28;20176;-70
2023/10/24 10:44:41;;;;;;;27.55;6.05;;;;;;;22.24;51.31;94933.13;5091142;28;20181;-70
2023/10/24 10:47:08;;;;;;;23.60;5.65;;;;;;;22.29;51.67;94925.03;5091405;28;20177;-70
2023/10/24 10:50:06;;;;;;;30.77;6.80;;;;;;;22.37;51.52;94919.06;5091608;28;20529;-70
2023/10/24 10:52:48;;;;;;;17.65;6.25;;;;;;;22.45;51.15;94923.81;5076726;28;20206;-70
2023/10/24 10:55:32;;;;;;;19.05;5.75;;;;;;;22.50;50.89;94915.69;5091047;28;20184;-70
2023/10/24 10:58:00;;;;;;;20.98;6.47;;;;;;;22.55;50.47;94916.47;5090908;28;20178;-70
2023/10/24 11:00:37;;;;;;;19.33;6.20;;;;;;;22.59;50.52;94904.06;5091342;28;20267;-70
2023/10/24 11:03:42;;;;;;;19.00;6.55;;;;;;;22.63;50.42;94896.25;5090991;28;20542;-70
2023/10/24 11:06:12;;;;;;;18.52;6.03;;;;;;;22.68;50.45;94885.44;5090736;28;20629;-70
2023/10/24 11:08:38;;;;;;;19.17;5.63;;;;;;;22.64;50.73;94889.00;5091039;28;20181;-70
2023/10/24 11:11:07;;;;;;;21.10;7.15;;;;;;;22.57;50.31;94883.97;5090663;28;20177;-70
2023/10/24 11:13:34;;;;;;;22.63;7.25;;;;;;;22.53;50.41;94878.38;5090601;28;20236;-71
2023/10/24 11:16:04;;;;;;;26.10;7.78;;;;;;;22.58;50.67;94880.19;5090885;28;20688;-70
2023/10/24 11:18:33;;;;;;;24.73;6.75;;;;;;;22.68;50.50;94863.97;5090810;28;20630;-70
2023/10/24 11:21:00;;;;;;;25.20;6.32;;;;;;;22.74;49.72;94862.88;5090644;28;20539;-70
2023/10/24 11:23:26;;;;;;;20.85;7.15;;;;;;;22.62;50.10;94858.97;5090516;28;20182;-70